createdAt,value
2023-02-17T00:01:21.986Z,47.35
2023-02-17T00:03:50.412Z,50.88
2023-02-17T00:06:20.016Z,44.47
2023-02-17T00:08:48.077Z,45.55
2023-02-17T00:11:15.840Z,44.40
2023-02-17T00:13:42.766Z,37.95
2023-02-17T00:16:22.617Z,35.10
2023-02-17T00:18:55.804Z,34.45
2023-02-17T00:21:24.975Z,28.50
2023-02-17T00:23:53.182Z,29.63
2023-02-17T00:26:21.021Z,27.48
2023-02-17T00:28:48.762Z,25.88
2023-02-17T00:31:22.085Z,28.95
2023-02-17T00:33:49.124Z,25.57
2023-02-17T00:36:19.407Z,32.00
2023-02-17T00:38:48.036Z,26.73
2023-02-17T00:41:15.959Z,26.83
2023-02-17T00:43:42.729Z,27.08
2023-02-17T00:46:09.631Z,23.98
2023-02-17T00:48:36.471Z,24.40
2023-02-17T00:51:03.564Z,25.05
2023-02-17T00:53:30.363Z,24.33
2023-02-17T00:55:57.150Z,27.65
2023-02-17T00:58:24.840Z,22.48
2023-02-17T01:00:51.666Z,23.20
2023-02-17T01:03:19.256Z,22.73
2023-02-17T01:05:48.524Z,22.48
2023-02-17T01:08:17.068Z,20.08
2023-02-17T01:10:46.084Z,23.00
2023-02-17T01:13:15.274Z,21.00
2023-02-17T01:15:48.803Z,24.70
2023-02-17T01:18:16.866Z,20.40
2023-02-17T01:20:44.153Z,20.73
2023-02-17T01:23:12.125Z,19.35
2023-02-17T01:25:45.714Z,23.95
2023-02-17T01:28:20.435Z,20.50
2023-02-17T01:30:48.480Z,20.65
2023-02-17T01:33:15.286Z,19.80
2023-02-17T01:35:42.338Z,18.52
2023-02-17T01:38:09.125Z,21.05
2023-02-17T01:40:35.938Z,19.38
2023-02-17T01:43:03.070Z,18.83
2023-02-17T01:45:39.926Z,19.83
2023-02-17T01:48:12.354Z,19.45
2023-02-17T01:50:48.590Z,21.05
2023-02-17T01:53:23.219Z,17.90
2023-02-17T01:55:50.831Z,18.52
2023-02-17T01:58:21.306Z,19.52
2023-02-17T02:00:52.620Z,21.27
2023-02-17T02:03:19.758Z,17.70
2023-02-17T02:05:46.867Z,15.10
2023-02-17T02:08:15.201Z,17.77
2023-02-17T02:10:42.029Z,20.95
2023-02-17T02:13:09.244Z,19.42
2023-02-17T02:16:13.291Z,17.52
2023-02-17T02:19:47.271Z,18.05
2023-02-17T02:23:07.323Z,17.67
2023-02-17T02:26:12.976Z,17.77
2023-02-17T02:29:12.944Z,17.42
2023-02-17T02:32:20.743Z,15.68
2023-02-17T02:35:16.774Z,16.20
2023-02-17T02:37:56.410Z,15.90
2023-02-17T02:40:29.841Z,16.92
2023-02-17T02:43:00.931Z,16.20
2023-02-17T02:45:27.845Z,18.38
2023-02-17T02:47:57.679Z,18.65
2023-02-17T02:50:49.678Z,19.33
2023-02-17T02:54:05.469Z,18.15
2023-02-17T02:56:54.006Z,17.20
2023-02-17T02:59:52.431Z,17.92
2023-02-17T03:02:38.071Z,19.10
2023-02-17T03:05:26.174Z,17.77
2023-02-17T03:07:59.805Z,17.45
2023-02-17T03:10:26.927Z,18.80
2023-02-17T03:12:54.169Z,18.83
2023-02-17T03:15:33.267Z,19.58
2023-02-17T03:18:02.418Z,17.02
2023-02-17T03:20:36.123Z,17.70
2023-02-17T03:23:04.562Z,20.27
2023-02-17T03:25:31.500Z,18.27
2023-02-17T03:27:58.276Z,16.63
2023-02-17T03:30:25.055Z,15.27
2023-02-17T03:32:51.870Z,18.38
2023-02-17T03:35:18.722Z,15.93
2023-02-17T03:37:45.652Z,16.05
2023-02-17T03:40:12.432Z,16.40
2023-02-17T03:42:39.205Z,15.05
2023-02-17T03:45:06.382Z,15.45
2023-02-17T03:47:33.136Z,17.65
2023-02-17T03:49:59.904Z,15.05
2023-02-17T03:52:26.682Z,15.55
2023-02-17T03:54:53.492Z,16.65
2023-02-17T03:57:20.343Z,15.55
2023-02-17T03:59:47.107Z,16.23
2023-02-17T04:02:13.889Z,15.85
2023-02-17T04:04:40.711Z,16.10
2023-02-17T04:07:07.497Z,15.05
2023-02-17T04:09:34.252Z,15.88
2023-02-17T04:12:01.020Z,14.75
2023-02-17T04:14:27.797Z,16.00
2023-02-17T04:16:54.588Z,14.90
2023-02-17T04:19:21.433Z,14.02
2023-02-17T04:21:48.213Z,14.60
2023-02-17T04:24:15.002Z,13.63
2023-02-17T04:26:41.810Z,14.07
2023-02-17T04:29:08.588Z,14.15
2023-02-17T04:31:35.518Z,13.18
2023-02-17T04:34:02.603Z,14.20
2023-02-17T04:36:29.334Z,14.32
2023-02-17T04:38:56.097Z,12.20
2023-02-17T04:41:22.856Z,12.50
2023-02-17T04:43:49.619Z,13.32
2023-02-17T04:46:16.507Z,12.52
2023-02-17T04:48:43.316Z,13.10
2023-02-17T04:51:10.076Z,12.85
2023-02-17T04:53:36.849Z,13.35
2023-02-17T04:56:04.123Z,12.00
2023-02-17T04:58:31.126Z,12.57
2023-02-17T05:00:59.625Z,13.20
2023-02-17T05:03:26.614Z,11.68
2023-02-17T05:05:53.389Z,11.60
2023-02-17T05:08:20.174Z,12.20
2023-02-17T05:10:46.927Z,12.43
2023-02-17T05:13:13.796Z,12.68
2023-02-17T05:15:40.598Z,12.40
2023-02-17T05:18:07.379Z,12.38
2023-02-17T05:20:34.175Z,12.07
2023-02-17T05:23:00.944Z,11.20
2023-02-17T05:25:27.857Z,12.30
2023-02-17T05:27:54.663Z,12.18
2023-02-17T05:30:21.610Z,12.18
2023-02-17T05:32:48.650Z,11.05
2023-02-17T05:35:15.451Z,11.32
2023-02-17T05:37:42.246Z,11.52
2023-02-17T05:40:09.716Z,11.18
2023-02-17T05:42:36.484Z,13.98
2023-02-17T05:45:04.096Z,12.25
2023-02-17T05:47:30.947Z,12.07
2023-02-17T05:49:57.725Z,13.60
2023-02-17T05:52:24.487Z,11.93
2023-02-17T05:54:51.265Z,11.50
2023-02-17T05:57:18.017Z,13.43
2023-02-17T05:59:44.784Z,14.10
2023-02-17T06:02:11.589Z,13.27
2023-02-17T06:04:38.695Z,12.90
2023-02-17T06:07:05.520Z,16.65
2023-02-17T06:09:32.283Z,13.73
2023-02-17T06:11:59.094Z,13.88
2023-02-17T06:14:25.869Z,13.77
2023-02-17T06:16:53.678Z,15.25
2023-02-17T06:19:21.908Z,14.57
2023-02-17T06:21:48.699Z,14.38
2023-02-17T06:24:15.807Z,14.60
2023-02-17T06:26:42.608Z,14.68
2023-02-17T06:29:09.409Z,17.38
2023-02-17T06:31:36.496Z,16.20
2023-02-17T06:34:06.138Z,16.90
2023-02-17T06:36:33.543Z,15.80
2023-02-17T06:39:00.366Z,19.38
2023-02-17T06:41:27.210Z,15.20
2023-02-17T06:43:54.033Z,16.92
2023-02-17T06:46:20.874Z,19.85
2023-02-17T06:48:47.648Z,19.05
2023-02-17T06:51:14.487Z,17.65
2023-02-17T06:53:41.292Z,17.45
2023-02-17T06:56:08.196Z,17.42
2023-02-17T06:58:37.441Z,19.80
2023-02-17T07:01:04.928Z,17.70
2023-02-17T07:03:32.796Z,18.48
2023-02-17T07:06:00.115Z,17.80
2023-02-17T07:08:26.936Z,18.88
2023-02-17T07:10:53.721Z,21.35
2023-02-17T07:13:20.489Z,20.23
2023-02-17T07:15:47.297Z,18.92
2023-02-17T07:18:14.089Z,21.38
2023-02-17T07:20:40.836Z,19.42
2023-02-17T07:23:07.969Z,19.20
2023-02-17T07:25:34.754Z,19.55
2023-02-17T07:28:01.525Z,21.25
2023-02-17T07:30:28.371Z,22.17
2023-02-17T07:32:55.174Z,21.25
2023-02-17T07:35:22.206Z,22.45
2023-02-17T07:37:49.080Z,21.67
2023-02-17T07:40:15.849Z,17.90
2023-02-17T07:42:42.646Z,17.85
2023-02-17T07:45:09.507Z,18.13
2023-02-17T07:47:36.277Z,17.55
2023-02-17T07:50:03.127Z,17.60
2023-02-17T07:52:29.876Z,17.80
2023-02-17T07:54:56.696Z,19.27
2023-02-17T07:57:23.447Z,20.50
2023-02-17T07:59:50.211Z,22.80
2023-02-17T08:02:17.074Z,21.60
2023-02-17T08:04:44.245Z,21.63
2023-02-17T08:07:11.072Z,21.23
2023-02-17T08:09:56.269Z,20.00
2023-02-17T08:12:41.489Z,19.73
2023-02-17T08:15:11.135Z,19.17
2023-02-17T08:17:38.143Z,20.10
2023-02-17T08:20:09.184Z,20.50
2023-02-17T08:22:36.797Z,21.65
2023-02-17T08:25:05.925Z,25.08
2023-02-17T08:27:32.720Z,21.10
2023-02-17T08:29:59.650Z,20.55
2023-02-17T08:32:26.503Z,22.92
2023-02-17T08:34:56.665Z,23.85
2023-02-17T08:37:23.524Z,22.27
2023-02-17T08:39:50.366Z,20.80
2023-02-17T08:42:17.990Z,19.30
2023-02-17T08:44:44.918Z,18.55
2023-02-17T08:47:11.824Z,18.35
2023-02-17T08:49:38.633Z,18.23
2023-02-17T08:52:05.445Z,21.27
2023-02-17T08:54:32.787Z,18.40
2023-02-17T08:56:59.866Z,18.48
2023-02-17T08:59:26.903Z,16.73
2023-02-17T09:01:53.772Z,16.90
2023-02-17T09:04:20.632Z,18.58
2023-02-17T09:06:51.479Z,16.88
2023-02-17T09:09:22.563Z,16.50
2023-02-17T09:11:49.635Z,14.55
2023-02-17T09:14:16.542Z,15.95
2023-02-17T09:16:43.452Z,14.63
2023-02-17T09:19:10.286Z,14.45
2023-02-17T09:21:37.070Z,15.32
2023-02-17T09:24:04.095Z,15.85
2023-02-17T09:26:30.867Z,14.95
2023-02-17T09:28:58.064Z,15.05
2023-02-17T09:31:29.825Z,13.82
2023-02-17T09:33:58.679Z,16.50
2023-02-17T09:36:29.834Z,12.35
2023-02-17T09:38:57.157Z,12.27
2023-02-17T09:41:38.124Z,11.70
2023-02-17T09:44:25.879Z,10.50
2023-02-17T09:47:12.482Z,11.20
2023-02-17T09:49:46.950Z,12.07
2023-02-17T09:55:15.610Z,11.00
2023-02-17T09:57:58.210Z,8.50
2023-02-17T10:00:32.260Z,9.02
2023-02-17T10:03:18.180Z,8.52
2023-02-17T10:06:36.914Z,9.45
2023-02-17T10:09:26.677Z,8.85
2023-02-17T10:12:04.173Z,10.25
2023-02-17T10:14:56.261Z,10.32
2023-02-17T10:17:52.387Z,9.13
2023-02-17T10:20:50.061Z,10.27
2023-02-17T10:23:24.073Z,9.90
2023-02-17T10:26:06.299Z,9.05
2023-02-17T10:29:30.893Z,9.63
2023-02-17T10:32:22.257Z,10.05
2023-02-17T10:35:15.658Z,10.88
2023-02-17T10:38:46.693Z,10.77
2023-02-17T10:41:20.499Z,13.40
2023-02-17T10:43:48.901Z,13.55
2023-02-17T10:46:27.591Z,14.85
2023-02-17T10:48:55.970Z,14.85
2023-02-17T10:51:27.677Z,12.75
2023-02-17T10:54:16.344Z,12.25
2023-02-17T10:56:48.363Z,13.63
2023-02-17T10:59:22.376Z,18.17
2023-02-17T11:01:49.496Z,16.48
2023-02-17T11:04:16.335Z,16.27
2023-02-17T11:06:51.015Z,17.17
2023-02-17T11:09:28.653Z,16.17
2023-02-17T11:12:04.234Z,18.55
2023-02-17T11:14:33.619Z,16.77
2023-02-17T11:17:23.402Z,17.25
2023-02-17T11:20:04.470Z,19.20
2023-02-17T11:22:36.011Z,18.25
2023-02-17T11:25:18.753Z,19.42
2023-02-17T11:28:01.925Z,18.25
2023-02-17T11:30:32.967Z,17.90
2023-02-17T11:33:01.061Z,18.50
2023-02-17T11:35:36.820Z,18.60
2023-02-17T11:38:12.765Z,20.27
2023-02-17T11:40:39.651Z,19.17
2023-02-17T11:43:06.900Z,17.45
2023-02-17T11:45:46.052Z,18.30
2023-02-17T11:48:44.363Z,16.90
2023-02-17T11:51:39.971Z,16.80
2023-02-17T11:54:21.129Z,17.80
2023-02-17T11:57:24.537Z,17.90
2023-02-17T12:00:22.972Z,18.17
2023-02-17T12:03:23.607Z,15.43
2023-02-17T12:06:18.277Z,16.38
2023-02-17T12:09:16.569Z,15.90
2023-02-17T12:12:06.205Z,14.38
2023-02-17T12:15:03.624Z,14.50
2023-02-17T12:17:38.178Z,12.93
2023-02-17T12:20:31.757Z,13.43
2023-02-17T12:23:35.700Z,12.20
2023-02-17T12:26:36.646Z,11.88
2023-02-17T12:29:52.173Z,12.80
2023-02-17T12:32:42.597Z,11.35
2023-02-17T12:35:20.077Z,11.73
2023-02-17T12:37:58.372Z,12.85
2023-02-17T12:40:34.343Z,12.27
2023-02-17T12:43:46.251Z,11.90
2023-02-17T12:46:24.221Z,10.95
2023-02-17T12:49:09.515Z,10.40
2023-02-17T12:51:49.878Z,9.23
2023-02-17T12:54:37.032Z,9.07
2023-02-17T12:57:56.064Z,13.23
2023-02-17T13:00:29.470Z,10.15
2023-02-17T13:03:00.452Z,8.07
2023-02-17T13:05:51.016Z,8.27
2023-02-17T13:08:37.864Z,8.60
2023-02-17T13:11:11.481Z,8.88
2023-02-17T13:13:39.304Z,7.65
2023-02-17T13:16:12.849Z,8.68
2023-02-17T13:18:50.359Z,8.38
2023-02-17T13:21:32.499Z,6.82
2023-02-17T13:24:26.144Z,7.15
2023-02-17T13:26:52.912Z,7.10
2023-02-17T13:29:25.624Z,7.38
2023-02-17T13:31:59.447Z,8.02
2023-02-17T13:34:45.281Z,7.07
2023-02-17T13:37:44.065Z,8.63
2023-02-17T13:40:17.794Z,7.85
2023-02-17T13:42:48.138Z,8.13
2023-02-17T13:45:27.426Z,8.07
2023-02-17T13:48:17.917Z,7.93
2023-02-17T13:50:48.789Z,7.07
2023-02-17T13:53:41.596Z,9.02
2023-02-17T13:56:29.006Z,8.82
2023-02-17T13:59:11.675Z,9.43
2023-02-17T14:01:42.354Z,8.23
2023-02-17T14:04:31.224Z,8.00
2023-02-17T14:07:00.989Z,9.02
2023-02-17T14:09:31.009Z,7.47
2023-02-17T14:12:01.896Z,8.05
2023-02-17T14:14:38.291Z,9.57
2023-02-17T14:17:32.646Z,8.95
2023-02-17T14:20:00.785Z,9.35
2023-02-17T14:22:34.907Z,10.73
2023-02-17T14:25:14.395Z,8.90
2023-02-17T14:27:43.961Z,9.85
2023-02-17T14:30:34.103Z,8.15
2023-02-17T14:33:22.520Z,10.60
2023-02-17T14:35:58.670Z,8.65
2023-02-17T14:38:32.863Z,7.97
2023-02-17T14:41:01.019Z,8.73
2023-02-17T14:43:28.250Z,9.88
2023-02-17T14:45:55.045Z,10.13
2023-02-17T14:48:21.986Z,9.05
2023-02-17T14:50:49.066Z,9.40
2023-02-17T14:53:28.802Z,9.95
2023-02-17T14:56:08.784Z,9.23
2023-02-17T14:58:35.833Z,9.60
2023-02-17T15:01:02.607Z,10.15
2023-02-17T15:03:29.425Z,11.07
2023-02-17T15:05:56.423Z,11.18
2023-02-17T15:08:33.222Z,9.88
2023-02-17T15:11:00.743Z,8.82
2023-02-17T15:13:27.556Z,11.48
2023-02-17T15:15:54.460Z,8.52
2023-02-17T15:18:21.430Z,8.80
2023-02-17T15:20:50.793Z,7.57
2023-02-17T15:23:25.406Z,7.40
2023-02-17T15:25:54.651Z,8.73
2023-02-17T15:28:22.213Z,8.02
2023-02-17T15:30:55.120Z,6.45
2023-02-17T15:33:23.907Z,5.88
2023-02-17T15:35:53.560Z,6.07
2023-02-17T15:38:21.507Z,7.47
2023-02-17T15:40:48.300Z,6.30
2023-02-17T15:43:22.333Z,5.93
2023-02-17T15:45:49.210Z,6.07
2023-02-17T15:48:30.536Z,6.72
2023-02-17T15:50:57.448Z,5.25
2023-02-17T15:53:24.335Z,9.40
2023-02-17T15:55:52.399Z,5.88
2023-02-17T15:58:21.610Z,10.95
2023-02-17T16:00:50.247Z,5.03
2023-02-17T16:03:17.875Z,4.43
2023-02-17T16:05:44.844Z,5.22
2023-02-17T16:08:12.125Z,4.65
2023-02-17T16:10:42.212Z,5.07
2023-02-17T16:13:14.685Z,6.10
2023-02-17T16:15:42.555Z,4.18
2023-02-17T16:18:21.638Z,4.50
2023-02-17T16:20:49.041Z,5.93
2023-02-17T16:23:15.856Z,7.95
2023-02-17T16:25:45.444Z,6.28
2023-02-17T16:28:18.915Z,5.50
2023-02-17T16:30:46.365Z,5.63
2023-02-17T16:33:13.879Z,4.82
2023-02-17T16:35:42.425Z,8.50
2023-02-17T16:38:16.383Z,7.03
2023-02-17T16:40:52.308Z,6.05
2023-02-17T16:43:27.586Z,9.63
2023-02-17T16:45:58.551Z,8.50
2023-02-17T16:48:29.702Z,8.48
2023-02-17T16:50:56.981Z,9.18
2023-02-17T16:53:23.757Z,8.40
2023-02-17T16:55:53.295Z,6.70
2023-02-17T16:58:26.379Z,8.52
2023-02-17T17:00:55.751Z,7.03
2023-02-17T17:03:22.674Z,6.90
2023-02-17T17:05:51.762Z,7.43
2023-02-17T17:08:20.627Z,8.27
2023-02-17T17:10:49.253Z,8.57
2023-02-17T17:13:16.039Z,8.05
2023-02-17T17:15:45.866Z,6.68
2023-02-17T17:18:21.227Z,8.98
2023-02-17T17:20:48.538Z,8.65
2023-02-17T17:23:16.529Z,8.60
2023-02-17T17:25:46.496Z,7.03
2023-02-17T17:28:15.957Z,9.07
2023-02-17T17:30:43.009Z,9.05
2023-02-17T17:33:09.798Z,8.60
2023-02-17T17:35:37.172Z,11.82
2023-02-17T17:38:04.621Z,10.25
2023-02-17T17:40:48.550Z,7.35
2023-02-17T17:43:20.902Z,9.52
2023-02-17T17:45:49.524Z,10.82
2023-02-17T17:48:18.009Z,7.70
2023-02-17T17:50:48.845Z,5.78
2023-02-17T17:53:15.614Z,10.32
2023-02-17T17:55:42.423Z,7.53
2023-02-17T17:58:09.255Z,8.55
2023-02-17T18:00:36.288Z,5.53
2023-02-17T18:03:03.988Z,7.57
2023-02-17T18:05:30.991Z,6.97
2023-02-17T18:07:57.808Z,10.10
2023-02-17T18:10:24.684Z,8.40
2023-02-17T18:12:51.645Z,12.05
2023-02-17T18:15:19.010Z,6.53
2023-02-17T18:17:48.045Z,10.32
2023-02-17T18:20:15.091Z,9.50
2023-02-17T18:22:41.995Z,7.03
2023-02-17T18:25:10.062Z,12.35
2023-02-17T18:27:39.681Z,7.25
2023-02-17T18:30:08.101Z,9.20
2023-02-17T18:32:35.119Z,13.75
2023-02-17T18:35:02.224Z,7.90
2023-02-17T18:37:29.072Z,9.32
2023-02-17T18:39:56.259Z,13.73
2023-02-17T18:42:23.998Z,8.80
2023-02-17T18:44:54.004Z,14.82
2023-02-17T18:47:22.570Z,10.82
2023-02-17T18:49:49.522Z,12.52
2023-02-17T18:52:16.389Z,11.23
2023-02-17T18:54:45.114Z,11.43
2023-02-17T18:57:12.443Z,12.93
2023-02-17T18:59:39.231Z,14.07
2023-02-17T19:02:08.322Z,10.93
2023-02-17T19:04:35.760Z,9.98
2023-02-17T19:07:04.352Z,12.52
2023-02-17T19:09:37.093Z,7.97
2023-02-17T19:12:06.083Z,10.98
2023-02-17T19:14:33.625Z,11.02
2023-02-17T19:17:00.440Z,12.52
2023-02-17T19:19:30.255Z,9.77
2023-02-17T19:21:57.607Z,11.32
2023-02-17T19:24:24.342Z,7.97
2023-02-17T19:26:51.273Z,13.57
2023-02-17T19:29:18.098Z,11.25
2023-02-17T19:31:44.910Z,7.07
2023-02-17T19:34:12.147Z,9.45
2023-02-17T19:36:38.943Z,8.30
2023-02-17T19:39:05.937Z,10.43
2023-02-17T19:41:34.411Z,12.02
2023-02-17T19:44:02.662Z,12.60
2023-02-17T19:46:29.759Z,9.02
2023-02-17T19:48:56.557Z,11.45
2023-02-17T19:51:23.354Z,7.97
2023-02-17T19:53:50.287Z,10.05
2023-02-17T19:56:21.229Z,6.53
2023-02-17T19:58:49.052Z,14.68
2023-02-17T20:01:29.482Z,9.65
2023-02-17T20:03:57.803Z,11.30
2023-02-17T20:06:32.202Z,10.13
2023-02-17T20:11:29.945Z,16.88
2023-02-17T20:14:01.342Z,13.88
2023-02-17T20:16:29.260Z,16.55
2023-02-17T20:18:56.145Z,10.55
2023-02-17T20:21:28.000Z,13.75
2023-02-17T20:23:55.651Z,9.45
2023-02-17T20:26:30.401Z,12.10
2023-02-17T20:28:58.461Z,14.30
2023-02-17T20:31:26.678Z,12.40
2023-02-17T20:33:53.881Z,12.63
2023-02-17T20:36:22.186Z,18.02
2023-02-17T20:38:50.047Z,16.02
2023-02-17T20:41:20.378Z,13.43
2023-02-17T20:43:47.648Z,11.40
2023-02-17T20:46:26.553Z,10.25
2023-02-17T20:48:54.286Z,10.38
2023-02-17T20:51:21.466Z,10.02
2023-02-17T20:53:48.523Z,17.30
2023-02-17T20:56:20.653Z,12.75
2023-02-17T20:58:48.495Z,19.67
2023-02-17T21:01:15.371Z,14.95
2023-02-17T21:03:42.245Z,11.57
2023-02-17T21:06:23.303Z,9.23
2023-02-17T21:08:55.962Z,13.85
2023-02-17T21:11:22.896Z,8.90
2023-02-17T21:13:50.069Z,11.05
2023-02-17T21:16:21.792Z,12.50
2023-02-17T21:18:48.584Z,11.48
2023-02-17T21:21:15.899Z,13.93
2023-02-17T21:23:43.153Z,7.80
2023-02-17T21:26:11.775Z,11.48
2023-02-17T21:28:38.983Z,9.27
2023-02-17T21:31:06.347Z,8.40
2023-02-17T21:33:33.819Z,9.27
2023-02-17T21:36:05.794Z,12.35
2023-02-17T21:38:32.694Z,13.57
2023-02-17T21:41:10.462Z,9.13
2023-02-17T21:43:57.953Z,12.98
2023-02-17T21:46:26.195Z,7.60
2023-02-17T21:48:53.585Z,15.10
2023-02-17T21:51:20.616Z,12.48
2023-02-17T21:53:47.455Z,12.95
2023-02-17T21:56:14.550Z,11.00
2023-02-17T21:58:46.925Z,7.93
2023-02-17T22:01:14.109Z,8.82
2023-02-17T22:03:40.962Z,11.70
2023-02-17T22:06:29.114Z,12.80
2023-02-17T22:08:57.673Z,10.73
2023-02-17T22:11:31.622Z,8.80
2023-02-17T22:14:02.172Z,13.30
2023-02-17T22:16:35.051Z,5.93
2023-02-17T22:19:03.865Z,9.65
2023-02-17T22:21:30.622Z,13.80
2023-02-17T22:23:59.143Z,10.05
2023-02-17T22:26:27.127Z,8.82
2023-02-17T22:28:54.945Z,8.50
2023-02-17T22:31:25.527Z,10.65
2023-02-17T22:33:52.408Z,11.82
2023-02-17T22:36:22.630Z,11.15
2023-02-17T22:38:50.491Z,12.23
2023-02-17T22:41:22.641Z,15.88
2023-02-17T22:43:49.932Z,11.82
2023-02-17T22:46:18.643Z,7.47
2023-02-17T22:48:47.087Z,12.90
2023-02-17T22:51:17.365Z,9.68
2023-02-17T22:53:44.725Z,8.60
2023-02-17T22:56:11.859Z,12.25
2023-02-17T22:58:39.521Z,9.00
2023-02-17T23:01:16.601Z,9.02
2023-02-17T23:03:44.849Z,11.02
2023-02-17T23:06:18.984Z,6.88
2023-02-17T23:08:46.944Z,10.43
2023-02-17T23:11:17.856Z,13.32
2023-02-17T23:13:45.523Z,11.05
2023-02-17T23:16:21.312Z,7.85
2023-02-17T23:18:48.148Z,7.13
2023-02-17T23:21:14.915Z,5.50
2023-02-17T23:23:41.736Z,9.63
2023-02-17T23:26:08.792Z,7.07
2023-02-17T23:28:35.740Z,9.65
2023-02-17T23:31:02.600Z,9.10
2023-02-17T23:33:29.391Z,12.75
2023-02-17T23:35:56.140Z,12.73
2023-02-17T23:38:22.944Z,11.95
2023-02-17T23:40:51.957Z,5.65
2023-02-17T23:43:19.833Z,5.10
2023-02-17T23:45:46.664Z,9.85
2023-02-17T23:48:13.813Z,7.60
2023-02-17T23:50:40.718Z,11.00
2023-02-17T23:53:08.251Z,7.47
2023-02-17T23:55:35.095Z,10.88
2023-02-17T23:58:01.852Z,11.63
